Time;durP1;ratioP1;P1;durP2;ratioP2;P2;SDS_P1;SDS_P2;PMS_P1;PMS_P2;Temp;Humidity;BMP_temperature;BMP_pressure;BME280_temperature;BME280_humidity;BME280_pressure;Samples;Min_cycle;Max_cycle;Signal;HPM_P1;HPM_P2
2021/10/19 00:01:20;;;;;;;13.65;10.10;;;14.30;87.70;;;;;;5042470;28;20041;-80
2021/10/19 00:03:46;;;;;;;16.95;10.43;;;14.30;88.00;;;;;;5054712;28;20033;-80
2021/10/19 00:06:12;;;;;;;14.77;9.63;;;14.30;87.90;;;;;;5040826;28;20057;-80
2021/10/19 00:08:38;;;;;;;14.85;9.77;;;14.30;88.30;;;;;;5041708;28;20021;-81
2021/10/19 00:11:04;;;;;;;13.98;9.52;;;14.30;87.10;;;;;;5038022;28;20372;-80
2021/10/19 00:13:30;;;;;;;12.88;8.77;;;14.40;87.90;;;;;;5038060;28;20473;-80
2021/10/19 00:15:56;;;;;;;15.93;11.57;;;14.30;88.00;;;;;;5055473;28;20436;-81
2021/10/19 00:18:21;;;;;;;16.98;12.00;;;14.30;88.40;;;;;;5038237;28;20029;-81
2021/10/19 00:20:47;;;;;;;12.23;8.95;;;14.30;88.80;;;;;;5054515;28;20068;-82
2021/10/19 00:23:13;;;;;;;16.17;11.43;;;14.30;88.70;;;;;;5037851;28;20102;-81
2021/10/19 00:25:39;;;;;;;15.30;10.95;;;14.30;89.40;;;;;;5037615;28;20056;-82
2021/10/19 00:28:04;;;;;;;14.43;10.50;;;14.30;89.30;;;;;;5057533;28;20036;-79
2021/10/19 00:30:31;;;;;;;16.05;11.13;;;14.30;89.30;;;;;;5054118;28;20032;-80
2021/10/19 00:32:57;;;;;;;13.50;9.23;;;14.30;89.50;;;;;;5039215;28;20506;-81
2021/10/19 00:35:23;;;;;;;13.35;9.93;;;14.30;89.60;;;;;;5044257;28;20040;-81
2021/10/19 00:37:48;;;;;;;20.13;11.55;;;14.30;89.30;;;;;;5057157;28;20025;-81
2021/10/19 00:40:14;;;;;;;13.90;10.90;;;14.30;89.40;;;;;;5054163;28;20079;-81
2021/10/19 00:42:40;;;;;;;13.85;10.13;;;14.30;89.40;;;;;;5055623;28;20057;-81
2021/10/19 00:45:07;;;;;;;14.52;10.50;;;14.30;89.90;;;;;;5053946;28;20465;-80
2021/10/19 00:47:34;;;;;;;19.63;11.70;;;14.30;88.80;;;;;;5037437;28;20044;-80
2021/10/19 00:50:01;;;;;;;15.05;10.98;;;14.20;89.80;;;;;;5055470;28;20513;-81
2021/10/19 00:52:27;;;;;;;13.27;9.57;;;14.30;90.00;;;;;;5037586;28;20025;-80
2021/10/19 00:54:54;;;;;;;12.93;9.13;;;14.30;89.90;;;;;;5055160;28;20029;-80
2021/10/19 00:57:20;;;;;;;15.18;11.25;;;14.30;90.00;;;;;;5037369;28;20108;-80
2021/10/19 00:59:47;;;;;;;17.83;12.25;;;14.30;90.30;;;;;;5054932;28;20063;-81
2021/10/19 01:02:14;;;;;;;16.40;11.98;;;14.20;90.40;;;;;;5036530;28;20024;-80
2021/10/19 01:04:43;;;;;;;16.83;9.23;;;14.20;90.50;;;;;;5055409;28;20040;-80
2021/10/19 01:07:11;;;;;;;14.85;10.80;;;14.20;90.30;;;;;;5037354;28;20028;-79
2021/10/19 01:09:37;;;;;;;13.20;10.23;;;14.20;90.60;;;;;;5044756;28;20115;-79
2021/10/19 01:12:07;;;;;;;16.17;11.68;;;14.20;90.70;;;;;;5071519;28;20021;-80
2021/10/19 01:14:33;;;;;;;15.20;11.52;;;14.20;90.40;;;;;;5050238;28;20023;-79
2021/10/19 01:16:59;;;;;;;15.43;9.95;;;14.20;90.30;;;;;;5055951;28;20025;-79
2021/10/19 01:19:25;;;;;;;13.07;8.98;;;14.20;90.40;;;;;;5055074;28;20020;-80
2021/10/19 01:21:53;;;;;;;9.88;6.90;;;14.20;90.60;;;;;;5036982;28;20084;-80
2021/10/19 01:24:19;;;;;;;16.60;11.43;;;14.20;90.00;;;;;;5054760;28;20033;-80
2021/10/19 01:26:45;;;;;;;13.10;9.80;;;14.20;90.30;;;;;;5036003;28;20029;-80
2021/10/19 01:29:12;;;;;;;16.33;10.48;;;14.20;90.50;;;;;;5054310;28;20083;-80
2021/10/19 01:31:38;;;;;;;14.70;10.25;;;14.20;90.60;;;;;;5036237;28;20021;-80
2021/10/19 01:34:03;;;;;;;16.88;11.20;;;14.20;90.70;;;;;;5035764;28;20024;-79
2021/10/19 01:36:29;;;;;;;15.50;10.73;;;14.20;90.80;;;;;;5052589;28;20545;-79
2021/10/19 01:38:54;;;;;;;14.95;11.75;;;14.20;91.00;;;;;;5052587;28;20389;-79
2021/10/19 01:41:20;;;;;;;15.10;11.52;;;14.20;91.00;;;;;;5035987;28;20036;-79
2021/10/19 01:43:46;;;;;;;15.00;10.25;;;14.20;91.10;;;;;;5053212;28;20021;-79
2021/10/19 01:46:12;;;;;;;15.55;11.23;;;14.20;90.60;;;;;;5059142;28;20055;-79
2021/10/19 01:48:40;;;;;;;15.27;9.43;;;14.20;91.10;;;;;;5037780;28;20025;-80
2021/10/19 01:51:05;;;;;;;17.27;11.18;;;14.20;90.90;;;;;;5036171;28;20025;-80
2021/10/19 01:53:31;;;;;;;15.55;10.90;;;14.20;91.10;;;;;;5054968;28;20031;-80
2021/10/19 01:55:57;;;;;;;12.25;8.57;;;14.20;91.20;;;;;;5064402;28;20377;-80
2021/10/19 01:58:24;;;;;;;16.10;10.48;;;14.30;90.90;;;;;;5035891;28;20029;-79
2021/10/19 02:00:54;;;;;;;14.82;10.55;;;14.20;91.10;;;;;;5052365;28;20025;-80
2021/10/19 02:03:20;;;;;;;13.77;10.05;;;14.30;91.20;;;;;;5035883;28;20025;-79
2021/10/19 02:05:47;;;;;;;12.95;9.25;;;14.20;91.20;;;;;;5035499;28;20131;-80
2021/10/19 02:08:15;;;;;;;22.27;11.27;;;14.20;91.00;;;;;;5035437;28;20016;-80
2021/10/19 02:10:41;;;;;;;15.20;10.95;;;14.30;91.10;;;;;;5052742;28;20167;-79
2021/10/19 02:13:08;;;;;;;15.02;10.77;;;14.30;90.70;;;;;;5035282;28;20029;-79
2021/10/19 02:15:34;;;;;;;14.20;10.07;;;14.30;91.00;;;;;;5035539;28;20462;-79
2021/10/19 02:18:01;;;;;;;10.25;7.40;;;14.30;91.10;;;;;;5052022;28;20390;-79
2021/10/19 02:20:27;;;;;;;14.35;11.05;;;14.30;91.00;;;;;;5035644;28;20029;-79
2021/10/19 02:22:53;;;;;;;13.35;8.75;;;14.30;90.90;;;;;;5057810;28;20028;-79
2021/10/19 02:25:20;;;;;;;12.35;9.45;;;14.30;90.20;;;;;;5046622;28;20037;-79
2021/10/19 02:27:46;;;;;;;11.05;7.60;;;14.30;90.00;;;;;;5058236;28;20028;-79
2021/10/19 02:30:14;;;;;;;9.75;5.63;;;14.30;90.10;;;;;;5074322;28;20056;-80
2021/10/19 02:32:40;;;;;;;11.13;7.85;;;14.30;89.80;;;;;;5037072;28;20066;-79
2021/10/19 02:35:07;;;;;;;13.80;9.25;;;14.30;89.60;;;;;;5036332;28;20465;-81
2021/10/19 02:37:34;;;;;;;12.00;9.05;;;14.30;90.10;;;;;;5035524;28;20385;-79
2021/10/19 02:40:00;;;;;;;15.07;10.40;;;14.30;89.50;;;;;;5053234;28;20104;-79
2021/10/19 02:42:25;;;;;;;10.77;8.23;;;14.30;89.80;;;;;;5052259;28;20055;-80
2021/10/19 02:44:51;;;;;;;16.98;9.95;;;14.30;90.30;;;;;;5035319;28;20551;-79
2021/10/19 02:47:17;;;;;;;11.88;8.60;;;14.30;90.60;;;;;;5034731;28;20028;-79
2021/10/19 02:49:42;;;;;;;17.73;12.38;;;14.30;91.00;;;;;;5052889;28;20024;-79
2021/10/19 02:52:08;;;;;;;15.27;10.55;;;14.30;91.10;;;;;;5051231;28;20028;-79
2021/10/19 02:54:35;;;;;;;12.15;8.52;;;14.30;91.20;;;;;;5052864;28;20048;-79
2021/10/19 02:57:01;;;;;;;10.93;8.07;;;14.30;91.00;;;;;;5034808;28;20040;-79
2021/10/19 02:59:27;;;;;;;8.55;5.85;;;14.30;90.30;;;;;;5052745;28;20032;-79
2021/10/19 03:01:52;;;;;;;12.40;8.73;;;14.30;89.40;;;;;;5034888;28;20115;-80
2021/10/19 03:04:18;;;;;;;11.70;8.70;;;14.40;89.80;;;;;;5053017;28;20039;-80
2021/10/19 03:06:44;;;;;;;9.98;6.97;;;14.30;89.50;;;;;;5035546;28;20493;-79
2021/10/19 03:09:09;;;;;;;13.73;8.90;;;14.40;89.10;;;;;;5035336;28;20036;-79
2021/10/19 03:11:35;;;;;;;7.57;4.55;;;14.40;89.30;;;;;;5035456;28;20108;-79
2021/10/19 03:14:01;;;;;;;16.63;10.85;;;14.40;88.30;;;;;;5040936;28;20041;-80
2021/10/19 03:16:26;;;;;;;16.40;12.50;;;14.50;91.90;;;;;;5054769;28;20496;-80
2021/10/19 03:18:52;;;;;;;14.27;7.57;;;14.50;91.80;;;;;;5052439;28;20104;-79
2021/10/19 03:21:18;;;;;;;14.85;10.15;;;14.50;91.20;;;;;;5034595;28;20033;-79
2021/10/19 03:23:44;;;;;;;9.45;6.80;;;14.50;91.40;;;;;;5052877;28;20028;-80
2021/10/19 03:26:12;;;;;;;11.13;8.00;;;14.50;90.70;;;;;;5039295;28;20122;-80
2021/10/19 03:28:38;;;;;;;17.88;12.05;;;14.50;91.10;;;;;;5057268;28;20052;-80
2021/10/19 03:31:04;;;;;;;18.90;13.27;;;14.50;91.30;;;;;;5038216;28;20339;-80
2021/10/19 03:33:30;;;;;;;12.40;8.10;;;14.60;91.40;;;;;;5054559;28;20159;-80
2021/10/19 03:35:56;;;;;;;13.32;7.90;;;14.60;91.50;;;;;;5038309;28;20025;-82
2021/10/19 03:38:21;;;;;;;12.07;8.55;;;14.60;91.10;;;;;;5038031;28;20134;-80
2021/10/19 03:40:47;;;;;;;17.13;12.55;;;14.60;90.70;;;;;;5038169;28;20473;-79
2021/10/19 03:43:13;;;;;;;21.23;13.02;;;14.60;92.60;;;;;;5054585;28;20103;-80
2021/10/19 03:45:39;;;;;;;16.00;12.50;;;14.50;92.60;;;;;;5056214;28;20148;-80
2021/10/19 03:48:04;;;;;;;12.25;9.30;;;14.50;92.60;;;;;;5054672;28;20021;-80
2021/10/19 03:50:30;;;;;;;12.65;9.07;;;14.50;91.60;;;;;;5038652;28;20040;-80
2021/10/19 03:52:57;;;;;;;9.18;7.00;;;14.50;92.60;;;;;;5040306;28;20071;-79
2021/10/19 03:55:24;;;;;;;14.73;9.57;;;14.50;91.80;;;;;;5039192;28;20029;-80
2021/10/19 03:57:50;;;;;;;16.13;10.93;;;14.50;91.70;;;;;;5040055;28;20453;-80
2021/10/19 04:00:16;;;;;;;17.70;13.65;;;14.50;92.50;;;;;;5060325;28;20461;-80
2021/10/19 04:02:41;;;;;;;12.50;9.02;;;14.60;93.40;;;;;;5049585;28;20025;-80
2021/10/19 04:05:07;;;;;;;14.10;9.15;;;14.60;92.80;;;;;;5046004;28;20028;-80
2021/10/19 04:07:34;;;;;;;10.52;7.05;;;14.50;91.60;;;;;;5071784;28;20067;-79
2021/10/19 04:10:02;;;;;;;15.23;12.43;;;14.50;91.40;;;;;;5071603;28;20028;-80
2021/10/19 04:12:28;;;;;;;15.40;11.15;;;14.50;92.50;;;;;;5038235;28;20060;-81
2021/10/19 04:14:53;;;;;;;13.57;9.32;;;14.50;92.90;;;;;;5057915;28;20040;-81
2021/10/19 04:17:19;;;;;;;11.57;9.23;;;14.50;91.30;;;;;;5054423;28;20025;-80
2021/10/19 04:19:44;;;;;;;11.18;9.27;;;14.50;91.70;;;;;;5060432;28;20025;-80
2021/10/19 04:22:10;;;;;;;14.55;9.95;;;14.50;91.50;;;;;;5049585;28;20044;-80
2021/10/19 04:24:36;;;;;;;15.70;10.77;;;14.50;92.40;;;;;;5037934;28;20018;-80
2021/10/19 04:27:03;;;;;;;10.07;7.10;;;14.60;92.50;;;;;;5055382;28;20052;-78
2021/10/19 04:29:29;;;;;;;13.80;10.93;;;14.60;92.50;;;;;;5038697;28;20045;-79
2021/10/19 04:31:54;;;;;;;10.00;7.20;;;14.60;92.20;;;;;;5054660;28;20371;-81
2021/10/19 04:34:20;;;;;;;13.07;8.52;;;14.60;91.50;;;;;;5045544;28;20036;-80
2021/10/19 04:36:45;;;;;;;17.42;11.93;;;14.60;91.20;;;;;;5038541;28;20021;-81
2021/10/19 04:39:11;;;;;;;15.35;12.35;;;14.60;92.00;;;;;;5037075;28;20120;-78
2021/10/19 04:41:43;;;;;;;12.73;9.48;;;14.60;91.20;;;;;;5053548;28;20497;-79
2021/10/19 04:44:09;;;;;;;13.20;8.90;;;14.60;93.00;;;;;;5037341;28;20017;-80
2021/10/19 04:46:35;;;;;;;11.85;6.55;;;14.60;91.70;;;;;;5037450;28;20079;-79
2021/10/19 04:49:00;;;;;;;18.77;13.95;;;14.60;91.90;;;;;;5037585;28;20032;-80
2021/10/19 04:51:29;;;;;;;12.43;8.68;;;14.60;93.10;;;;;;5053563;28;20484;-80
2021/10/19 04:53:55;;;;;;;20.55;15.85;;;14.60;92.50;;;;;;5037397;28;20417;-79
2021/10/19 04:56:21;;;;;;;14.23;10.50;;;14.60;93.20;;;;;;5036773;28;20037;-79
2021/10/19 04:58:47;;;;;;;17.05;13.55;;;14.60;93.10;;;;;;5053745;28;20021;-79
2021/10/19 05:01:12;;;;;;;11.18;8.27;;;14.60;93.30;;;;;;5036784;28;20071;-79
2021/10/19 05:03:42;;;;;;;15.15;10.77;;;14.70;92.50;;;;;;5037419;28;20090;-80
2021/10/19 05:06:08;;;;;;;10.43;7.80;;;14.70;92.90;;;;;;5039769;28;20017;-80
2021/10/19 05:08:33;;;;;;;16.35;11.55;;;14.60;92.60;;;;;;5055137;28;20052;-80
2021/10/19 05:10:59;;;;;;;16.60;12.75;;;14.60;92.60;;;;;;5053712;28;20076;-79
2021/10/19 05:13:24;;;;;;;17.63;14.90;;;14.60;92.70;;;;;;5055643;28;20070;-78
2021/10/19 05:15:50;;;;;;;12.27;8.88;;;14.60;92.90;;;;;;5059790;28;20032;-79
2021/10/19 05:18:16;;;;;;;11.90;8.40;;;14.60;92.60;;;;;;5037481;28;20024;-78
2021/10/19 05:20:41;;;;;;;10.15;7.07;;;14.60;92.80;;;;;;5036925;28;20108;-78
2021/10/19 05:23:07;;;;;;;18.15;15.10;;;14.60;92.60;;;;;;5036351;28;20519;-78
2021/10/19 05:25:32;;;;;;;13.57;10.45;;;14.60;92.80;;;;;;5052659;28;20027;-79
2021/10/19 05:27:58;;;;;;;14.02;10.35;;;14.60;93.30;;;;;;5054189;28;20071;-80
2021/10/19 05:30:23;;;;;;;14.85;10.63;;;14.60;93.10;;;;;;5036037;28;20070;-78
2021/10/19 05:32:49;;;;;;;15.95;12.30;;;14.50;92.80;;;;;;5035978;28;20500;-77
2021/10/19 05:35:15;;;;;;;10.23;8.30;;;14.60;93.70;;;;;;5052084;28;20091;-79
2021/10/19 05:37:41;;;;;;;20.02;14.93;;;14.60;93.10;;;;;;5035709;28;20125;-79
2021/10/19 05:40:07;;;;;;;15.18;11.90;;;14.60;93.60;;;;;;5035540;28;20025;-79
2021/10/19 05:42:33;;;;;;;18.58;14.27;;;14.60;93.20;;;;;;5035696;28;20017;-78
2021/10/19 05:44:59;;;;;;;16.98;14.63;;;14.50;94.10;;;;;;5035634;28;20021;-78
2021/10/19 05:47:24;;;;;;;19.85;15.73;;;14.60;94.20;;;;;;5051492;28;20025;-79
2021/10/19 05:49:50;;;;;;;19.13;14.40;;;14.60;94.70;;;;;;5035781;28;20468;-78
2021/10/19 05:52:15;;;;;;;12.63;11.18;;;14.60;94.40;;;;;;5035523;28;20028;-79
2021/10/19 05:54:41;;;;;;;16.48;13.40;;;14.60;94.30;;;;;;5055033;28;20029;-78
2021/10/19 05:57:07;;;;;;;15.05;11.55;;;14.60;94.70;;;;;;5053857;28;20035;-77
2021/10/19 05:59:32;;;;;;;18.48;14.30;;;14.60;94.40;;;;;;5054251;28;20029;-78
2021/10/19 06:01:59;;;;;;;16.40;13.45;;;14.60;94.40;;;;;;5053051;28;20477;-78
2021/10/19 06:04:27;;;;;;;17.85;14.90;;;14.60;94.50;;;;;;5054286;28;20033;-78
2021/10/19 06:07:01;;;;;;;11.98;8.73;;;14.60;94.90;;;;;;5062056;28;20037;-79
2021/10/19 06:09:29;;;;;;;13.07;9.20;;;14.60;94.40;;;;;;5052262;28;20032;-79
2021/10/19 06:11:54;;;;;;;8.23;6.50;;;14.50;93.90;;;;;;5061143;28;20029;-78
2021/10/19 06:14:23;;;;;;;8.70;6.88;;;14.60;93.30;;;;;;5054162;28;20354;-79
2021/10/19 06:16:49;;;;;;;10.50;8.18;;;14.60;93.20;;;;;;5034405;28;20467;-79
2021/10/19 06:19:15;;;;;;;11.25;8.95;;;14.60;93.00;;;;;;5034003;28;20060;-82
2021/10/19 06:21:41;;;;;;;15.88;13.15;;;14.60;92.70;;;;;;5065798;28;20049;-79
2021/10/19 06:24:07;;;;;;;16.50;14.63;;;14.60;93.30;;;;;;5034869;28;20014;-79
2021/10/19 06:26:35;;;;;;;15.07;11.65;;;14.60;93.80;;;;;;5053731;28;20029;-78
2021/10/19 06:29:04;;;;;;;11.40;9.77;;;14.60;93.60;;;;;;5035851;28;20021;-79
2021/10/19 06:31:29;;;;;;;13.07;11.40;;;14.60;93.30;;;;;;5054474;28;20104;-79
2021/10/19 06:34:01;;;;;;;10.60;8.73;;;14.60;93.50;;;;;;5039422;28;20048;-79
2021/10/19 06:36:27;;;;;;;18.95;14.43;;;14.70;93.90;;;;;;5035209;28;20385;-78
2021/10/19 06:38:53;;;;;;;22.75;18.63;;;14.60;94.30;;;;;;5035062;28;20453;-78
2021/10/19 06:41:19;;;;;;;22.02;18.92;;;14.70;94.90;;;;;;5052423;28;20025;-78
2021/10/19 06:43:45;;;;;;;27.48;21.10;;;14.70;95.10;;;;;;5034358;28;20021;-78
2021/10/19 06:46:12;;;;;;;18.33;15.35;;;14.70;95.40;;;;;;5034019;28;20388;-78
2021/10/19 06:48:37;;;;;;;17.35;14.98;;;14.70;95.10;;;;;;5052365;28;20032;-78
2021/10/19 06:51:05;;;;;;;22.50;18.30;;;14.70;95.60;;;;;;5052925;28;20025;-78
2021/10/19 06:53:31;;;;;;;24.73;19.50;;;14.70;95.50;;;;;;5036043;28;20029;-77
2021/10/19 06:55:57;;;;;;;25.33;19.45;;;14.70;95.60;;;;;;5034275;28;20029;-77
2021/10/19 06:58:24;;;;;;;27.85;20.83;;;14.70;95.90;;;;;;5034185;28;20036;-77
2021/10/19 07:00:50;;;;;;;17.13;13.98;;;14.70;96.00;;;;;;5055433;28;20393;-77
2021/10/19 07:03:16;;;;;;;22.92;19.08;;;14.70;96.00;;;;;;5038468;28;20020;-76
2021/10/19 07:05:42;;;;;;;20.92;16.55;;;14.80;96.00;;;;;;5038473;28;20053;-76
2021/10/19 07:08:07;;;;;;;24.77;20.75;;;14.80;96.20;;;;;;5036684;28;20030;-77
2021/10/19 07:10:33;;;;;;;23.30;17.58;;;14.80;96.30;;;;;;5036734;28;20113;-77
2021/10/19 07:12:58;;;;;;;24.77;19.33;;;14.80;96.20;;;;;;5036941;28;20025;-77
2021/10/19 07:15:24;;;;;;;29.58;21.40;;;14.80;96.20;;;;;;5020990;28;20032;-77
2021/10/19 07:17:50;;;;;;;21.85;17.92;;;14.90;96.20;;;;;;5018833;28;20030;-78
2021/10/19 07:20:15;;;;;;;23.52;18.88;;;14.90;96.30;;;;;;5021974;28;20049;-77
2021/10/19 07:22:42;;;;;;;23.23;20.17;;;14.90;96.40;;;;;;5019557;28;20022;-78
2021/10/19 07:25:08;;;;;;;22.17;17.48;;;14.90;96.40;;;;;;5018938;28;20033;-78
2021/10/19 07:27:34;;;;;;;28.65;22.85;;;14.90;96.40;;;;;;5036375;28;20025;-79
2021/10/19 07:30:00;;;;;;;28.85;21.77;;;14.90;96.50;;;;;;5036600;28;20386;-78
2021/10/19 07:32:26;;;;;;;31.33;23.92;;;14.90;96.40;;;;;;5036389;28;20029;-77
2021/10/19 07:34:53;;;;;;;20.15;17.20;;;14.90;96.60;;;;;;5018339;28;20441;-77
2021/10/19 07:37:19;;;;;;;26.48;21.73;;;15.00;96.50;;;;;;5018214;28;20142;-77
2021/10/19 07:39:45;;;;;;;18.30;15.75;;;15.00;96.50;;;;;;5018506;28;20098;-77
2021/10/19 07:42:11;;;;;;;34.47;25.00;;;15.00;96.40;;;;;;5018519;28;20030;-78
2021/10/19 07:44:37;;;;;;;30.00;24.90;;;15.00;96.80;;;;;;5019375;28;20037;-78
2021/10/19 07:47:03;;;;;;;19.75;16.23;;;15.00;96.60;;;;;;5019248;28;20017;-77
2021/10/19 07:49:29;;;;;;;34.83;25.42;;;15.00;96.40;;;;;;5019041;28;20049;-77
2021/10/19 07:51:54;;;;;;;28.23;22.10;;;15.10;96.60;;;;;;5019171;28;20025;-77
2021/10/19 07:54:20;;;;;;;24.77;20.45;;;15.10;96.80;;;;;;5021491;28;20109;-77
2021/10/19 07:56:46;;;;;;;16.40;14.20;;;15.10;96.80;;;;;;5046553;28;20040;-76
2021/10/19 07:59:11;;;;;;;32.05;24.77;;;15.10;96.70;;;;;;5035099;28;20093;-77
2021/10/19 08:01:37;;;;;;;26.20;21.55;;;15.10;96.80;;;;;;5027376;28;20025;-78
2021/10/19 08:04:03;;;;;;;31.23;24.45;;;15.10;96.70;;;;;;5046367;28;20043;-77
2021/10/19 08:06:30;;;;;;;36.28;26.48;;;15.20;97.00;;;;;;5044243;28;20028;-78
2021/10/19 08:08:55;;;;;;;36.30;26.27;;;15.20;97.00;;;;;;5055931;28;20083;-78
2021/10/19 08:11:21;;;;;;;33.03;25.88;;;15.20;97.10;;;;;;5054911;28;20033;-78
2021/10/19 08:13:47;;;;;;;23.83;20.45;;;15.20;97.10;;;;;;5037521;28;20025;-79
2021/10/19 08:16:13;;;;;;;35.58;26.55;;;15.20;96.90;;;;;;5037493;28;20028;-78
2021/10/19 08:18:39;;;;;;;29.90;22.80;;;15.30;97.20;;;;;;5056079;28;20025;-78
2021/10/19 08:21:06;;;;;;;32.17;25.85;;;15.20;97.20;;;;;;5038342;28;20025;-78
2021/10/19 08:23:32;;;;;;;30.17;23.83;;;15.30;97.30;;;;;;5038362;28;20171;-78
2021/10/19 08:25:58;;;;;;;28.77;21.83;;;15.30;97.10;;;;;;5038113;28;20088;-78
2021/10/19 08:28:30;;;;;;;23.85;20.05;;;15.30;97.00;;;;;;5037354;28;20021;-78
2021/10/19 08:30:57;;;;;;;32.35;24.63;;;15.40;97.10;;;;;;5037468;28;20025;-79
2021/10/19 08:33:22;;;;;;;30.48;24.42;;;15.40;97.10;;;;;;5037243;28;20416;-78
2021/10/19 08:35:48;;;;;;;25.83;21.42;;;15.40;97.10;;;;;;5037520;28;20028;-78
2021/10/19 08:38:14;;;;;;;30.95;23.63;;;15.40;96.40;;;;;;5037091;28;20123;-78
2021/10/19 08:40:43;;;;;;;18.33;15.85;;;15.50;96.40;;;;;;5037427;28;20064;-78
2021/10/19 08:43:10;;;;;;;29.27;23.27;;;15.50;96.40;;;;;;5037148;28;20021;-76
2021/10/19 08:45:36;;;;;;;22.75;19.92;;;15.50;96.50;;;;;;5037231;28;20020;-77
2021/10/19 08:48:03;;;;;;;30.00;24.02;;;15.50;96.70;;;;;;5037044;28;20021;-78
2021/10/19 08:50:29;;;;;;;21.60;19.27;;;15.60;97.20;;;;;;5036688;28;20033;-78
2021/10/19 08:52:55;;;;;;;27.75;21.83;;;15.60;97.10;;;;;;5054913;28;20075;-79
2021/10/19 08:55:21;;;;;;;26.88;22.38;;;15.60;97.20;;;;;;5036871;28;20036;-78
2021/10/19 08:57:47;;;;;;;16.75;15.02;;;15.60;97.20;;;;;;5054451;28;20444;-77
2021/10/19 09:00:13;;;;;;;17.27;15.10;;;15.60;96.70;;;;;;5054776;28;20067;-78
2021/10/19 09:02:44;;;;;;;18.95;16.52;;;15.70;96.50;;;;;;5036664;28;20385;-78
2021/10/19 09:05:24;;;;;;;24.08;21.05;;;15.70;96.60;;;;;;5054466;28;20032;-78
2021/10/19 09:08:02;;;;;;;30.15;24.60;;;15.80;96.70;;;;;;5036600;28;20593;-78
2021/10/19 09:10:31;;;;;;;21.40;18.58;;;15.80;97.20;;;;;;5036485;28;20466;-77
2021/10/19 09:12:59;;;;;;;21.20;16.90;;;15.80;97.10;;;;;;5036226;28;20029;-77
2021/10/19 09:15:33;;;;;;;21.17;17.42;;;15.80;96.50;;;;;;5036700;28;20294;-78
2021/10/19 09:18:04;;;;;;;19.33;17.00;;;15.80;96.80;;;;;;5036967;28;20357;-78
2021/10/19 09:20:39;;;;;;;20.42;17.88;;;15.80;97.00;;;;;;5039500;28;20025;-78
2021/10/19 09:23:06;;;;;;;15.43;13.65;;;15.90;96.80;;;;;;5045691;28;20025;-79
2021/10/19 09:25:34;;;;;;;23.88;18.15;;;15.90;96.80;;;;;;5054187;28;20025;-79
2021/10/19 09:28:01;;;;;;;19.38;15.98;;;15.90;96.90;;;;;;5035828;28;20021;-78
2021/10/19 09:30:37;;;;;;;20.27;16.75;;;16.00;96.70;;;;;;5036165;28;20028;-79
2021/10/19 09:33:04;;;;;;;20.23;16.98;;;16.00;96.50;;;;;;5036633;28;20385;-78
2021/10/19 09:35:30;;;;;;;24.85;17.63;;;16.00;96.70;;;;;;5036396;28;20031;-78
2021/10/19 09:38:01;;;;;;;21.33;17.27;;;16.00;97.20;;;;;;5054970;28;20108;-79
2021/10/19 09:40:42;;;;;;;16.95;14.73;;;16.00;97.20;;;;;;5036540;28;20523;-78
2021/10/19 09:43:11;;;;;;;17.05;13.05;;;16.10;97.00;;;;;;5038241;28;20068;-78
2021/10/19 09:45:43;;;;;;;17.92;15.52;;;16.10;97.00;;;;;;5045612;28;20020;-77
2021/10/19 09:48:17;;;;;;;17.02;13.68;;;16.10;97.30;;;;;;5070815;28;20540;-77
2021/10/19 09:50:45;;;;;;;15.18;13.57;;;16.10;97.20;;;;;;5058301;28;20025;-77
2021/10/19 09:53:12;;;;;;;16.83;13.93;;;16.10;97.40;;;;;;5035973;28;20120;-76
2021/10/19 09:55:39;;;;;;;15.63;13.95;;;16.20;97.50;;;;;;5053102;28;20613;-77
2021/10/19 09:58:05;;;;;;;13.40;12.00;;;16.20;97.40;;;;;;5035574;28;20492;-77
2021/10/19 10:00:33;;;;;;;15.85;13.77;;;16.20;96.90;;;;;;5035373;28;20025;-78
2021/10/19 10:03:04;;;;;;;9.57;7.63;;;16.20;97.10;;;;;;5053781;28;20029;-77
2021/10/19 10:05:35;;;;;;;9.57;8.32;;;16.30;96.40;;;;;;5052851;28;20064;-78
2021/10/19 10:08:02;;;;;;;9.13;7.55;;;16.30;96.40;;;;;;5053234;28;20159;-77
2021/10/19 10:10:28;;;;;;;10.98;8.32;;;16.30;96.60;;;;;;5051445;28;20084;-78
2021/10/19 10:13:26;;;;;;;6.10;4.95;;;16.40;96.80;;;;;;5035277;28;20029;-78
2021/10/19 10:15:53;;;;;;;6.97;5.78;;;16.40;96.30;;;;;;5002405;28;20520;-78
2021/10/19 10:18:31;;;;;;;13.18;10.98;;;16.40;96.40;;;;;;5052504;28;20021;-78
2021/10/19 10:20:56;;;;;;;6.95;5.70;;;16.40;96.90;;;;;;5035726;28;20021;-78
2021/10/19 10:23:27;;;;;;;8.02;6.70;;;16.40;95.90;;;;;;5035191;28;20028;-78
2021/10/19 10:25:55;;;;;;;9.23;8.25;;;16.40;95.10;;;;;;5053262;28;20088;-78
2021/10/19 10:28:24;;;;;;;10.10;8.23;;;16.40;96.00;;;;;;5034866;28;20025;-78
2021/10/19 10:30:49;;;;;;;11.10;8.50;;;16.50;96.00;;;;;;5035454;28;20027;-79
2021/10/19 10:33:15;;;;;;;12.27;8.88;;;16.50;95.90;;;;;;5035096;28;20017;-78
2021/10/19 10:35:43;;;;;;;12.13;9.18;;;16.50;96.50;;;;;;5035061;28;20386;-78
2021/10/19 10:38:09;;;;;;;12.45;10.18;;;16.50;96.50;;;;;;5051781;28;20493;-78
2021/10/19 10:40:40;;;;;;;10.43;8.82;;;16.60;96.20;;;;;;5035584;28;20025;-78
2021/10/19 10:43:20;;;;;;;12.25;9.18;;;16.60;96.50;;;;;;5053392;28;20021;-78
2021/10/19 10:46:05;;;;;;;9.88;7.38;;;16.60;95.50;;;;;;5055366;28;20071;-78
2021/10/19 10:48:31;;;;;;;12.48;8.00;;;16.60;95.70;;;;;;5036252;28;20029;-79
2021/10/19 10:50:57;;;;;;;9.07;7.15;;;16.70;95.40;;;;;;5054315;28;20021;-79
2021/10/19 10:53:48;;;;;;;12.65;10.05;;;16.70;95.70;;;;;;5038445;28;20025;-77
2021/10/19 10:56:15;;;;;;;15.23;12.70;;;16.70;96.10;;;;;;5040862;28;20116;-78
2021/10/19 10:58:42;;;;;;;17.73;13.15;;;16.80;95.70;;;;;;5057233;28;20025;-78
2021/10/19 11:01:16;;;;;;;7.32;5.45;;;16.80;96.40;;;;;;5041155;28;20084;-77
2021/10/19 11:03:46;;;;;;;19.20;15.18;;;16.80;95.20;;;;;;5038929;28;20032;-78
2021/10/19 11:06:17;;;;;;;19.15;14.88;;;16.80;96.50;;;;;;5035828;28;20024;-78
2021/10/19 11:08:45;;;;;;;16.60;12.15;;;16.90;96.60;;;;;;5034499;28;20021;-78
2021/10/19 11:11:17;;;;;;;12.90;10.50;;;16.90;96.80;;;;;;5034779;28;20087;-78
2021/10/19 11:13:55;;;;;;;10.27;8.15;;;16.90;95.70;;;;;;5034168;28;20073;-77
2021/10/19 11:16:48;;;;;;;20.98;16.23;;;16.90;94.90;;;;;;5034838;28;20029;-78
2021/10/19 11:19:19;;;;;;;15.18;11.30;;;16.90;96.50;;;;;;5031132;28;20552;-79
2021/10/19 11:21:46;;;;;;;12.43;9.77;;;16.90;96.20;;;;;;5035075;28;20029;-78
2021/10/19 11:24:12;;;;;;;17.40;13.27;;;17.00;96.40;;;;;;5054261;28;20111;-79
2021/10/19 11:26:37;;;;;;;19.80;14.30;;;17.00;96.40;;;;;;5052890;28;20032;-78
2021/10/19 11:29:04;;;;;;;19.02;14.60;;;17.00;96.50;;;;;;5052442;28;20084;-78
2021/10/19 11:31:32;;;;;;;15.95;12.07;;;17.10;96.60;;;;;;5035788;28;20021;-79
2021/10/19 11:33:59;;;;;;;18.90;14.48;;;17.10;96.40;;;;;;5045213;28;20024;-78
2021/10/19 11:36:25;;;;;;;19.08;14.20;;;17.20;96.40;;;;;;5072533;28;20060;-79
2021/10/19 11:38:53;;;;;;;18.48;15.23;;;17.20;96.70;;;;;;5064708;28;20029;-78
2021/10/19 11:41:22;;;;;;;18.58;14.60;;;17.20;96.20;;;;;;5034767;28;20036;-77
2021/10/19 11:43:55;;;;;;;16.60;13.20;;;17.20;96.30;;;;;;5036170;28;20021;-79
2021/10/19 11:46:23;;;;;;;18.05;15.52;;;17.20;95.60;;;;;;5055454;28;20029;-78
2021/10/19 11:48:51;;;;;;;20.48;17.23;;;17.30;96.20;;;;;;5055969;28;20160;-79
2021/10/19 11:51:19;;;;;;;11.90;8.90;;;17.20;96.70;;;;;;5056136;28;20021;-77
2021/10/19 11:53:46;;;;;;;19.83;13.40;;;17.20;95.60;;;;;;5055464;28;20029;-78
2021/10/19 11:56:14;;;;;;;16.70;11.30;;;17.30;95.30;;;;;;5037516;28;20500;-78
2021/10/19 11:58:51;;;;;;;13.80;10.88;;;17.30;95.50;;;;;;5055462;28;20033;-78
2021/10/19 12:01:18;;;;;;;18.90;13.32;;;17.40;95.20;;;;;;5037846;28;20021;-78
2021/10/19 12:03:44;;;;;;;17.15;12.65;;;17.30;94.50;;;;;;5037158;28;20140;-77
2021/10/19 12:06:12;;;;;;;26.35;17.40;;;17.40;95.40;;;;;;5055296;28;20458;-78
2021/10/19 12:08:42;;;;;;;24.17;18.50;;;17.40;95.50;;;;;;5037286;28;20025;-79
2021/10/19 12:11:12;;;;;;;27.70;16.52;;;17.50;95.90;;;;;;5055355;28;20470;-78
2021/10/19 12:13:39;;;;;;;17.67;12.55;;;17.50;96.50;;;;;;5055221;28;20109;-78
2021/10/19 12:16:06;;;;;;;17.83;13.35;;;17.50;96.10;;;;;;5037432;28;20096;-78
2021/10/19 12:18:45;;;;;;;20.50;15.07;;;17.50;95.90;;;;;;5038318;28;20029;-77
2021/10/19 12:21:14;;;;;;;20.98;15.18;;;17.40;96.30;;;;;;5037435;28;20116;-77
2021/10/19 12:23:50;;;;;;;24.27;18.33;;;17.40;96.50;;;;;;5037057;28;20157;-77
2021/10/19 12:26:19;;;;;;;27.35;19.23;;;17.40;96.60;;;;;;5037146;28;20025;-78
2021/10/19 12:28:51;;;;;;;27.20;18.52;;;17.40;96.40;;;;;;5036833;28;20017;-78
2021/10/19 12:31:19;;;;;;;27.77;18.65;;;17.40;96.20;;;;;;5036913;28;20375;-78